createdAt,value
2022-10-11T00:01:20.760Z,15.04
2022-10-11T00:06:22.404Z,15.02
2022-10-11T00:11:23.936Z,14.97
2022-10-11T00:16:25.489Z,14.91
2022-10-11T00:21:27.172Z,14.87
2022-10-11T00:26:29.307Z,14.83
2022-10-11T00:31:35.373Z,14.65
2022-10-11T00:36:37.493Z,14.51
2022-10-11T00:41:39.075Z,14.42
2022-10-11T00:46:44.478Z,14.43
2022-10-11T00:51:51.217Z,14.43
2022-10-11T00:57:03.611Z,14.37
2022-10-11T01:02:06.720Z,14.32
2022-10-11T01:07:09.572Z,14.24
2022-10-11T01:12:23.071Z,14.26
2022-10-11T01:18:22.046Z,14.22
2022-10-11T01:23:35.584Z,14.23
2022-10-11T01:29:11.780Z,14.20
2022-10-11T01:34:34.158Z,14.15
2022-10-11T01:39:52.113Z,14.13
2022-10-11T01:44:55.252Z,14.14
2022-10-11T01:49:59.673Z,14.13
2022-10-11T01:55:23.647Z,14.01
2022-10-11T02:00:31.890Z,14.00
2022-10-11T02:06:10.420Z,14.02
2022-10-11T02:11:31.537Z,14.01
2022-10-11T02:16:43.665Z,14.05
2022-10-11T02:21:50.810Z,14.04
2022-10-11T02:26:55.683Z,14.03
2022-10-11T02:31:59.457Z,14.00
2022-10-11T02:37:11.953Z,13.96
2022-10-11T02:42:26.890Z,13.94
2022-10-11T02:47:31.006Z,13.90
2022-10-11T02:52:32.545Z,13.88
2022-10-11T02:57:34.156Z,13.86
2022-10-11T03:02:35.765Z,13.79
2022-10-11T03:07:37.442Z,13.61
2022-10-11T03:12:38.985Z,13.41
2022-10-11T03:17:40.528Z,13.27
2022-10-11T03:22:42.035Z,13.16
2022-10-11T03:27:43.597Z,13.01
2022-10-11T03:32:45.536Z,12.94
2022-10-11T03:37:47.099Z,12.92
2022-10-11T03:42:48.631Z,12.86
2022-10-11T03:47:50.200Z,12.84
2022-10-11T03:52:51.756Z,12.88
2022-10-11T03:57:53.438Z,12.88
2022-10-11T04:02:57.324Z,12.85
2022-10-11T04:07:58.843Z,12.81
2022-10-11T04:13:00.397Z,12.70
2022-10-11T04:18:01.916Z,12.57
2022-10-11T04:23:03.534Z,12.49
2022-10-11T04:28:05.218Z,12.46
2022-10-11T04:33:06.853Z,12.49
2022-10-11T04:38:08.496Z,12.54
2022-10-11T04:43:10.073Z,12.54
2022-10-11T04:48:11.680Z,12.50
2022-10-11T04:53:13.205Z,12.38
2022-10-11T04:58:14.763Z,12.21
2022-10-11T05:03:16.279Z,12.19
2022-10-11T05:08:17.836Z,12.31
2022-10-11T05:13:19.353Z,12.35
2022-10-11T05:18:21.411Z,12.40
2022-10-11T05:23:22.935Z,12.43
2022-10-11T05:28:24.755Z,12.43
2022-10-11T05:33:26.653Z,12.38
2022-10-11T05:38:28.628Z,12.37
2022-10-11T05:43:33.035Z,12.33
2022-10-11T05:48:34.556Z,12.27
2022-10-11T05:53:37.975Z,12.25
2022-10-11T05:58:39.689Z,12.21
2022-10-11T06:03:41.216Z,12.20
2022-10-11T06:08:43.061Z,12.18
2022-10-11T06:13:44.810Z,12.18
2022-10-11T06:18:46.486Z,12.17
2022-10-11T06:23:50.397Z,12.14
2022-10-11T06:28:52.837Z,12.12
2022-10-11T06:33:54.411Z,12.08
2022-10-11T06:38:56.142Z,12.03
2022-10-11T06:43:57.995Z,12.02
2022-10-11T06:48:59.525Z,12.06
2022-10-11T06:54:02.175Z,12.01
2022-10-11T06:59:03.899Z,12.03
2022-10-11T07:04:05.602Z,12.05
2022-10-11T07:09:07.830Z,12.08
2022-10-11T07:14:09.609Z,12.09
2022-10-11T07:19:11.260Z,12.12
2022-10-11T07:24:12.785Z,12.07
2022-10-11T07:29:14.385Z,12.08
2022-10-11T07:34:16.060Z,12.11
2022-10-11T07:39:17.641Z,12.12
2022-10-11T07:44:19.156Z,12.22
2022-10-11T07:49:20.711Z,12.47
2022-10-11T07:54:49.970Z,12.57
2022-10-11T07:59:51.604Z,12.52
2022-10-11T08:04:53.154Z,12.46
2022-10-11T08:09:54.827Z,12.44
2022-10-11T08:14:56.652Z,12.54
2022-10-11T08:19:58.207Z,12.49
2022-10-11T08:24:59.805Z,12.45
2022-10-11T08:30:01.498Z,12.43
2022-10-11T08:35:03.267Z,12.39
2022-10-11T08:40:05.945Z,12.42
2022-10-11T08:45:11.905Z,12.27
2022-10-11T08:50:23.867Z,12.41
2022-10-11T08:55:45.798Z,12.47
2022-10-11T09:00:50.205Z,12.35
2022-10-11T09:06:12.567Z,12.24
2022-10-11T09:17:08.469Z,12.22
2022-10-11T09:22:24.739Z,12.22
2022-10-11T09:28:03.275Z,12.26
2022-10-11T09:33:19.121Z,12.55
2022-10-11T09:38:46.410Z,12.72
2022-10-11T09:43:50.973Z,12.90
2022-10-11T09:48:56.212Z,13.22
2022-10-11T09:54:04.828Z,13.35
2022-10-11T09:59:24.061Z,13.65
2022-10-11T10:04:25.624Z,13.48
2022-10-11T10:09:30.926Z,13.35
2022-10-11T10:14:32.497Z,13.38
2022-10-11T10:19:44.913Z,13.42
2022-10-11T10:24:48.877Z,13.52
2022-10-11T10:30:16.230Z,13.61
2022-10-11T10:35:29.670Z,13.64
2022-10-11T10:40:39.451Z,13.54
2022-10-11T10:45:59.843Z,13.49
2022-10-11T10:51:16.786Z,13.61
2022-10-11T10:56:46.032Z,13.78
2022-10-11T11:02:21.493Z,14.05
2022-10-11T11:07:33.001Z,14.19
2022-10-11T11:13:12.116Z,14.37
2022-10-11T11:18:36.502Z,14.74
2022-10-11T11:23:59.188Z,14.91
2022-10-11T11:29:08.906Z,15.00
2022-10-11T11:34:28.493Z,15.09
2022-10-11T11:39:34.832Z,15.07
2022-10-11T11:44:41.396Z,14.93
2022-10-11T11:50:03.825Z,15.00
2022-10-11T11:55:16.820Z,15.19
2022-10-11T12:00:22.126Z,15.43
2022-10-11T12:05:29.021Z,15.45
2022-10-11T12:10:51.956Z,15.50
2022-10-11T12:16:11.872Z,15.64
2022-10-11T12:21:25.808Z,15.72
2022-10-11T12:26:27.273Z,15.53
2022-10-11T12:31:32.357Z,15.43
2022-10-11T12:36:46.964Z,15.42
2022-10-11T12:41:56.091Z,15.34
2022-10-11T12:46:57.893Z,15.45
2022-10-11T12:52:17.783Z,15.47
2022-10-11T12:57:39.642Z,15.37
2022-10-11T13:02:44.082Z,15.32
2022-10-11T13:07:46.573Z,15.33
2022-10-11T13:12:53.129Z,15.51
2022-10-11T13:17:59.622Z,15.70
2022-10-11T13:23:02.944Z,15.79
2022-10-11T13:28:08.875Z,15.92
2022-10-11T13:33:23.580Z,16.16
2022-10-11T13:38:34.205Z,16.16
2022-10-11T13:43:36.606Z,16.01
2022-10-11T13:48:43.956Z,15.96
2022-10-11T13:54:13.144Z,16.00
2022-10-11T13:59:18.282Z,16.09
2022-10-11T14:04:19.877Z,16.08
2022-10-11T14:09:30.490Z,16.12
2022-10-11T14:14:35.655Z,15.98
2022-10-11T14:19:37.536Z,15.83
2022-10-11T14:24:39.055Z,15.89
2022-10-11T14:30:00.341Z,15.84
2022-10-11T14:35:06.877Z,15.81
2022-10-11T14:40:15.315Z,15.89
2022-10-11T14:45:17.699Z,16.02
2022-10-11T14:51:01.018Z,15.92
2022-10-11T14:56:02.842Z,15.79
2022-10-11T15:01:04.669Z,15.75
2022-10-11T15:06:07.792Z,15.76
2022-10-11T15:11:11.705Z,15.71
2022-10-11T15:16:15.819Z,15.67
2022-10-11T15:21:23.094Z,15.56
2022-10-11T15:26:27.198Z,15.51
2022-10-11T15:31:28.748Z,15.46
2022-10-11T15:36:30.671Z,15.35
2022-10-11T15:41:32.200Z,15.29
2022-10-11T15:46:33.709Z,15.26
2022-10-11T15:51:35.198Z,15.19
2022-10-11T15:56:37.860Z,15.14
2022-10-11T16:01:39.762Z,15.10
2022-10-11T16:06:41.384Z,15.01
2022-10-11T16:11:45.054Z,14.91
2022-10-11T16:16:46.616Z,14.76
2022-10-11T16:21:48.142Z,14.60
2022-10-11T16:26:49.643Z,14.45
2022-10-11T16:31:51.230Z,14.36
2022-10-11T16:36:52.819Z,14.17
2022-10-11T16:41:54.369Z,13.94
2022-10-11T16:46:56.013Z,13.62
2022-10-11T16:52:03.791Z,13.50
2022-10-11T16:57:05.448Z,13.48
2022-10-11T17:02:09.781Z,13.38
2022-10-11T17:07:14.967Z,13.38
2022-10-11T17:12:20.222Z,13.37
2022-10-11T17:17:21.739Z,13.30
2022-10-11T17:22:23.369Z,13.27
2022-10-11T17:27:24.921Z,13.15
2022-10-11T17:32:26.440Z,12.93
2022-10-11T17:37:28.021Z,12.65
2022-10-11T17:42:29.535Z,12.40
2022-10-11T17:47:31.059Z,12.06
2022-10-11T17:52:32.599Z,11.87
2022-10-11T17:57:34.132Z,11.73
2022-10-11T18:02:35.717Z,11.61
2022-10-11T18:07:37.235Z,11.45
2022-10-11T18:12:38.823Z,11.22
2022-10-11T18:17:40.327Z,11.06
2022-10-11T18:22:41.871Z,10.89
2022-10-11T18:27:43.375Z,10.70
2022-10-11T18:32:45.016Z,10.54
2022-10-11T18:37:46.590Z,10.36
2022-10-11T18:42:48.144Z,10.25
2022-10-11T18:47:51.069Z,10.30
2022-10-11T18:52:52.719Z,10.37
2022-10-11T18:57:54.356Z,10.34
2022-10-11T19:02:56.159Z,10.37
2022-10-11T19:07:57.724Z,10.43
2022-10-11T19:12:59.454Z,10.52
2022-10-11T19:18:00.968Z,10.59
2022-10-11T19:23:02.485Z,10.45
2022-10-11T19:28:04.159Z,10.30
2022-10-11T19:33:05.749Z,10.15
2022-10-11T19:38:07.299Z,10.05
2022-10-11T19:43:08.827Z,10.01
2022-10-11T19:48:11.475Z,9.96
2022-10-11T19:53:15.144Z,9.86
2022-10-11T19:58:17.363Z,9.76
2022-10-11T20:03:18.907Z,9.68
2022-10-11T20:08:20.431Z,9.73
2022-10-11T20:13:22.034Z,9.80
2022-10-11T20:18:24.536Z,9.85
2022-10-11T20:23:27.729Z,9.92
2022-10-11T20:28:31.675Z,9.86
2022-10-11T20:33:33.612Z,9.94
2022-10-11T20:38:37.206Z,9.99
2022-10-11T20:43:41.040Z,9.91
2022-10-11T20:48:46.741Z,9.81
2022-10-11T20:53:49.396Z,9.74
2022-10-11T20:58:52.851Z,9.72
2022-10-11T21:03:56.878Z,9.77
2022-10-11T21:08:59.648Z,9.90
2022-10-11T21:14:05.838Z,9.99
2022-10-11T21:19:07.441Z,10.03
2022-10-11T21:24:09.299Z,9.94
2022-10-11T21:29:10.868Z,9.95
2022-10-11T21:34:12.421Z,10.00
2022-10-11T21:39:14.016Z,10.09
2022-10-11T21:44:15.784Z,10.11
2022-10-11T21:49:18.106Z,10.05
2022-10-11T21:54:19.637Z,10.07
2022-10-11T21:59:21.203Z,10.15
2022-10-11T22:04:22.747Z,10.13
2022-10-11T22:09:24.383Z,10.04
2022-10-11T22:14:26.807Z,9.96
2022-10-11T22:19:28.316Z,9.87
2022-10-11T22:24:29.971Z,9.74
2022-10-11T22:29:34.174Z,9.60
2022-10-11T22:34:36.067Z,9.59
2022-10-11T22:39:37.600Z,9.51
2022-10-11T22:44:39.128Z,9.42
2022-10-11T22:49:40.638Z,9.29
2022-10-11T22:54:42.304Z,9.23
2022-10-11T22:59:43.837Z,9.17
2022-10-11T23:04:45.377Z,9.12
2022-10-11T23:09:46.954Z,8.97
2022-10-11T23:14:48.487Z,8.91
2022-10-11T23:19:50.049Z,9.00
2022-10-11T23:24:51.639Z,9.14
2022-10-11T23:29:53.264Z,9.33
2022-10-11T23:34:54.856Z,9.43
2022-10-11T23:39:56.376Z,9.45
2022-10-11T23:44:57.897Z,9.46
2022-10-11T23:49:59.430Z,9.42
2022-10-11T23:55:00.940Z,9.36
